Hauptseite
METAR-TAF:

METAR-TAF

Flughäfen :

Oxford, England

London Oxford Airport

Breite: 51-50-13N, Länge: 1-19-12W, Höhe: 82 m

Beobachtung

Neuester Wetterbericht von vor 1 Stunde und 30 Minuten, um 22:20 UTC
Wind 8 kt aus West/Südwest
Temperatur 2°C
Luftfeuchtigkeit 80%
Luftdruck 1005 hPa
Sichtweite 10 km oder mehr
keine Wolken unter 1500 m und keine Kumulonimbus oder Gewitterwolken

METAR: EGTK 182220Z 25008KT CAVOK 02/M01 Q1005

Zeit: 23:50 (23:50 UTC)

Prognose

Neuester Wetterbericht von vor 3 Stunden und 48 Minuten, um 20:02 UTC
Gültige Prognose vom 18 um 21 UTC bis 18 um 23 UTC
Wind 9 kt aus West/Südwest
Sichtweite 10 km oder mehr
Leicht bewölkt in der Höhe von 3000 ft

TAF: EGTK 182002Z 1821/1823 25009KT 9999 FEW030

Wetterbeobachtungen und Prognosen von mehr als 4000 Flughäfen (METAR und TAF Bericht).

Die verfügbaren Stationen werden durch gelbe und rote Markierungen auf der Karte dargestellt.

Führen Sie die Maus auf sie, um den Namen der Station zu sehen.

Darauf klicken, um die Beobachtung von Wetterbeobachtungen und Prognosen zu sehen.

Um die Karte zu ändern : klicken Sie auf den grünen Tasten mit einem schwarzen Kreuz Zum Vergrößern, auf den grünen Button mit einem Gedankenstrich zu verkleinern, oder auf die grünen Pfeile für benachbarte Karten.


METAR-TAF: